Time;durP1;ratioP1;P1;durP2;ratioP2;P2;SDS_P1;SDS_P2;PMS_P1;PMS_P2;Temp;Humidity;BMP_temperature;BMP_pressure;BME280_temperature;BME280_humidity;BME280_pressure;Samples;Min_cycle;Max_cycle;Signal;HPM_P1;HPM_P2
2023/08/28 00:02:04;;;;;;;6.57;4.30;;;;;;;14.74;88.35;101097.59;5096017;28;20024;-62
2023/08/28 00:04:29;;;;;;;6.15;3.67;;;;;;;14.73;87.97;101093.16;5095902;28;20028;-62
2023/08/28 00:06:55;;;;;;;6.25;3.67;;;;;;;14.78;88.01;101094.94;5096212;28;20063;-61
2023/08/28 00:09:20;;;;;;;4.85;3.72;;;;;;;14.79;87.48;101093.16;5095903;28;20031;-62
2023/08/28 00:11:45;;;;;;;6.55;3.67;;;;;;;14.81;87.86;101086.03;5095739;28;20109;-61
2023/08/28 00:14:11;;;;;;;9.60;4.10;;;;;;;14.83;87.32;101100.25;5095734;28;20069;-61
2023/08/28 00:16:36;;;;;;;6.10;3.75;;;;;;;14.80;87.63;101086.94;5095444;28;20135;-61
2023/08/28 00:19:02;;;;;;;6.50;3.80;;;;;;;14.81;87.38;101090.47;5095626;28;20035;-62
2023/08/28 00:21:29;;;;;;;7.05;3.80;;;;;;;14.80;87.73;101092.25;5095318;28;20048;-61
2023/08/28 00:23:54;;;;;;;5.70;3.60;;;;;;;14.73;87.61;101086.09;5095598;28;20059;-61
2023/08/28 00:26:20;;;;;;;7.85;3.80;;;;;;;14.75;87.57;101080.75;5095671;28;20114;-62
2023/08/28 00:28:45;;;;;;;6.47;3.78;;;;;;;14.80;87.39;101078.94;5095719;28;20386;-60
2023/08/28 00:31:10;;;;;;;6.45;3.72;;;;;;;14.81;87.16;101080.72;5095408;28;20397;-62
2023/08/28 00:33:36;;;;;;;8.02;3.70;;;;;;;14.88;87.17;101069.19;5094306;28;20056;-61
2023/08/28 00:36:01;;;;;;;5.18;3.72;;;;;;;14.92;86.50;101075.38;5095221;28;20057;-61
2023/08/28 00:38:26;;;;;;;5.10;3.70;;;;;;;14.95;86.32;101072.72;5095329;28;20481;-62
2023/08/28 00:40:52;;;;;;;6.35;3.85;;;;;;;14.87;86.73;101072.72;5095219;28;20028;-60
2023/08/28 00:43:17;;;;;;;6.32;4.10;;;;;;;14.77;87.29;101073.63;5095312;28;20153;-62
2023/08/28 00:45:43;;;;;;;7.43;3.90;;;;;;;14.77;86.83;101068.31;5095238;28;20461;-61
2023/08/28 00:48:15;;;;;;;6.07;3.70;;;;;;;14.83;87.07;101067.44;5095049;28;20047;-61
2023/08/28 00:50:41;;;;;;;6.63;4.05;;;;;;;14.90;86.33;101066.50;5094973;28;20082;-62
2023/08/28 00:53:07;;;;;;;6.55;3.90;;;;;;;14.93;86.21;101066.50;5077323;28;20055;-62
2023/08/28 00:55:34;;;;;;;6.90;3.90;;;;;;;14.86;86.38;101065.66;5094886;28;20410;-63
2023/08/28 00:58:01;;;;;;;5.72;3.70;;;;;;;14.75;86.45;101060.34;5095020;28;20021;-61
2023/08/28 01:00:27;;;;;;;9.48;4.03;;;;;;;14.64;87.30;101066.56;5094855;28;20474;-62
2023/08/28 01:02:53;;;;;;;5.20;3.97;;;;;;;14.57;87.54;101063.06;5095189;28;20016;-63
2023/08/28 01:05:27;;;;;;;5.60;3.67;;;;;;;14.57;87.73;101067.50;5094829;28;20528;-61
2023/08/28 01:08:06;;;;;;;7.35;4.30;;;;;;;14.60;87.57;101063.03;5094768;28;20028;-62
2023/08/28 01:10:41;;;;;;;4.65;3.95;;;;;;;14.60;87.53;101067.47;5094735;28;20462;-62
2023/08/28 01:13:17;;;;;;;8.25;4.22;;;;;;;14.50;87.96;101069.28;5094565;28;20078;-61
2023/08/28 01:15:44;;;;;;;7.10;4.18;;;;;;;14.44;88.47;101070.13;5094499;28;20032;-61
2023/08/28 01:18:09;;;;;;;5.35;4.10;;;;;;;14.28;88.67;101074.59;5094538;28;20085;-61
2023/08/28 01:20:35;;;;;;;6.75;4.25;;;;;;;14.09;89.89;101082.56;5094527;28;20024;-62
2023/08/28 01:23:36;;;;;;;7.03;4.05;;;;;;;14.01;90.42;101074.59;5094246;28;20085;-61
2023/08/28 01:26:01;;;;;;;7.05;4.25;;;;;;;13.93;90.94;101071.06;5076184;28;20450;-62
2023/08/28 01:28:27;;;;;;;8.60;4.40;;;;;;;13.92;90.87;101058.66;5094157;28;20097;-61
2023/08/28 01:30:53;;;;;;;6.70;4.30;;;;;;;13.99;90.90;101058.63;5094555;28;20158;-62
2023/08/28 01:33:19;;;;;;;7.07;4.20;;;;;;;14.11;90.15;101055.09;5094213;28;20028;-62
2023/08/28 01:35:54;;;;;;;6.65;4.25;;;;;;;14.19;90.47;101060.41;5094285;28;20020;-62
2023/08/28 01:38:24;;;;;;;7.57;4.40;;;;;;;14.17;90.54;101056.88;5076147;28;20465;-62
2023/08/28 01:41:07;;;;;;;6.60;4.50;;;;;;;14.13;90.28;101063.97;5094183;28;20408;-61
2023/08/28 01:43:45;;;;;;;8.27;4.60;;;;;;;14.16;90.33;101055.09;5093732;28;20462;-61
2023/08/28 01:46:12;;;;;;;6.88;4.60;;;;;;;14.20;89.91;101047.13;5093847;28;20024;-61
2023/08/28 01:48:44;;;;;;;7.25;4.70;;;;;;;14.21;90.17;101045.34;5094072;28;20024;-62
2023/08/28 01:51:10;;;;;;;7.03;4.90;;;;;;;14.20;89.58;101043.59;5094281;28;20145;-62
2023/08/28 01:53:35;;;;;;;5.35;4.07;;;;;;;14.24;90.25;101050.66;5093875;28;20444;-62
2023/08/28 01:56:06;;;;;;;9.23;4.30;;;;;;;14.25;89.82;101049.78;5093876;28;20032;-61
2023/08/28 01:58:34;;;;;;;6.97;4.88;;;;;;;14.17;89.96;101055.09;5093685;28;20103;-61
2023/08/28 02:00:59;;;;;;;11.25;4.72;;;;;;;14.18;89.96;101053.34;5093750;28;20389;-61
2023/08/28 02:03:25;;;;;;;6.97;4.82;;;;;;;14.16;89.77;101041.81;5093988;28;20107;-62
2023/08/28 02:05:50;;;;;;;10.45;4.90;;;;;;;14.20;89.35;101047.13;5093931;28;20081;-61
2023/08/28 02:08:15;;;;;;;8.40;4.80;;;;;;;14.17;89.55;101040.91;5093614;28;20036;-61
2023/08/28 02:10:41;;;;;;;7.60;4.90;;;;;;;14.26;89.69;101023.22;5093794;28;20030;-62
2023/08/28 02:13:06;;;;;;;8.88;5.10;;;;;;;14.35;89.07;101022.31;5093362;28;20031;-62
2023/08/28 02:15:31;;;;;;;8.82;4.70;;;;;;;14.47;88.64;101022.28;5093123;28;20051;-62
2023/08/28 02:17:57;;;;;;;7.32;4.60;;;;;;;14.46;87.84;101022.28;5093430;28;20032;-61
2023/08/28 02:20:22;;;;;;;8.40;4.72;;;;;;;14.40;87.49;101015.19;5093593;28;20427;-60
2023/08/28 02:22:47;;;;;;;10.95;4.70;;;;;;;14.35;87.25;101022.31;5093243;28;20047;-62
2023/08/28 02:25:13;;;;;;;8.50;5.00;;;;;;;14.28;87.53;101029.41;5093384;28;20078;-62
2023/08/28 02:27:38;;;;;;;7.72;4.57;;;;;;;14.29;87.69;101032.94;5093215;28;20030;-61
2023/08/28 02:30:04;;;;;;;6.22;4.43;;;;;;;14.20;87.68;101048.91;5093392;28;20461;-62
2023/08/28 02:32:30;;;;;;;6.32;4.55;;;;;;;14.25;87.54;101048.00;5093182;28;20016;-62
2023/08/28 02:34:55;;;;;;;5.72;4.45;;;;;;;14.31;87.20;101049.78;5093505;28;20055;-61
2023/08/28 02:37:21;;;;;;;9.10;4.65;;;;;;;14.29;86.53;101039.13;5093146;28;20068;-61
2023/08/28 02:39:46;;;;;;;6.15;4.68;;;;;;;14.18;86.86;101048.03;5093166;28;20028;-61
2023/08/28 02:42:12;;;;;;;6.55;4.75;;;;;;;14.10;87.27;101039.16;5093131;28;20020;-62
2023/08/28 02:44:37;;;;;;;7.10;4.78;;;;;;;14.01;87.25;101032.09;5093030;28;20032;-62
2023/08/28 02:47:04;;;;;;;7.68;4.63;;;;;;;13.90;87.54;101045.34;5092775;28;20063;-61
2023/08/28 02:49:29;;;;;;;6.72;4.32;;;;;;;13.76;88.49;101039.16;5093041;28;20055;-61
2023/08/28 02:51:55;;;;;;;9.02;4.70;;;;;;;13.59;89.25;101038.25;5093053;28;20393;-62
2023/08/28 02:54:20;;;;;;;7.38;5.10;;;;;;;13.49;90.42;101043.56;5093042;28;20466;-62
2023/08/28 02:56:45;;;;;;;8.05;5.32;;;;;;;13.45;91.19;101048.88;5095977;28;20393;-61
2023/08/28 02:59:11;;;;;;;10.13;5.60;;;;;;;13.45;91.69;101049.75;5097040;28;20047;-62
2023/08/28 03:01:36;;;;;;;7.80;5.05;;;;;;;13.58;91.72;101047.13;5097071;28;20393;-61
2023/08/28 03:04:04;;;;;;;7.75;5.13;;;;;;;13.58;91.18;101044.47;5097076;28;20060;-61
2023/08/28 03:06:38;;;;;;;11.75;5.10;;;;;;;13.70;90.80;101048.03;5097310;28;20059;-62
2023/08/28 03:09:05;;;;;;;8.02;5.22;;;;;;;13.86;90.66;101048.91;5097030;28;20465;-61
2023/08/28 03:11:30;;;;;;;7.05;5.20;;;;;;;13.86;89.51;101048.00;5097013;28;20492;-62
2023/08/28 03:13:55;;;;;;;9.38;5.05;;;;;;;13.83;88.77;101058.63;5078765;28;20028;-62
2023/08/28 03:16:21;;;;;;;8.00;4.78;;;;;;;13.80;88.25;101061.31;5096803;28;20024;-61
2023/08/28 03:18:47;;;;;;;9.13;5.20;;;;;;;13.82;89.47;101072.81;5079157;28;20024;-61
2023/08/28 03:21:12;;;;;;;6.82;5.07;;;;;;;13.74;88.96;101056.84;5096732;28;20475;-61
2023/08/28 03:23:38;;;;;;;5.38;4.47;;;;;;;13.72;88.25;101067.47;5092555;28;20178;-62
2023/08/28 03:26:03;;;;;;;8.25;5.47;;;;;;;13.71;90.59;101064.84;5096681;28;20044;-61
2023/08/28 03:28:29;;;;;;;7.03;5.70;;;;;;;13.68;90.93;101065.72;5096816;28;20040;-62
2023/08/28 03:30:58;;;;;;;8.10;5.53;;;;;;;13.63;91.24;101075.44;5096903;28;20470;-61
2023/08/28 03:33:24;;;;;;;8.50;5.43;;;;;;;13.61;91.12;101068.34;5096751;28;20070;-61
2023/08/28 03:35:50;;;;;;;9.07;5.85;;;;;;;13.69;91.11;101071.91;5096345;28;20068;-62
2023/08/28 03:38:15;;;;;;;8.88;5.10;;;;;;;13.64;91.08;101068.34;5096409;28;20035;-62
2023/08/28 03:40:40;;;;;;;8.43;5.65;;;;;;;13.58;92.09;101074.56;5096433;28;20039;-61
2023/08/28 03:43:06;;;;;;;7.15;5.78;;;;;;;13.55;91.92;101082.50;5096323;28;20449;-60
2023/08/28 03:45:31;;;;;;;11.15;5.65;;;;;;;13.51;91.54;101089.56;5096121;28;20024;-61
2023/08/28 03:47:57;;;;;;;6.93;5.47;;;;;;;13.46;91.69;101088.69;5078214;28;20034;-62
2023/08/28 03:50:22;;;;;;;8.70;5.45;;;;;;;13.45;92.23;101086.03;5096347;28;20063;-62
2023/08/28 03:52:48;;;;;;;10.43;5.45;;;;;;;13.40;91.99;101082.44;5096455;28;20385;-61
2023/08/28 03:55:13;;;;;;;8.13;5.53;;;;;;;13.42;92.36;101078.94;5096232;28;20028;-62
2023/08/28 03:57:39;;;;;;;8.32;5.28;;;;;;;13.53;91.92;101090.47;5077666;28;20389;-62
2023/08/28 04:00:10;;;;;;;10.05;5.13;;;;;;;13.53;91.06;101098.44;5096252;28;20032;-62
2023/08/28 04:02:36;;;;;;;7.35;4.82;;;;;;;13.62;90.91;101101.97;5096110;28;20552;-62
2023/08/28 04:05:04;;;;;;;5.45;4.30;;;;;;;13.66;90.37;101103.75;5095887;28;20031;-62
2023/08/28 04:07:31;;;;;;;7.35;5.20;;;;;;;13.65;91.15;101104.63;5095850;28;20036;-61
2023/08/28 04:09:57;;;;;;;6.28;4.82;;;;;;;13.58;91.81;101105.53;5096065;28;20024;-62
2023/08/28 04:12:22;;;;;;;8.15;5.28;;;;;;;13.48;92.56;101116.09;5095662;28;20489;-62
2023/08/28 04:14:48;;;;;;;7.47;5.63;;;;;;;13.44;93.50;101111.66;5095788;28;20106;-61
2023/08/28 04:17:13;;;;;;;8.68;5.53;;;;;;;13.45;94.09;101112.56;5095462;28;20024;-61
2023/08/28 04:19:38;;;;;;;8.38;5.82;;;;;;;13.47;94.50;101109.03;5095660;28;20056;-61
2023/08/28 04:22:05;;;;;;;8.07;5.60;;;;;;;13.58;93.69;101122.34;5095357;28;20512;-61
2023/08/28 04:24:31;;;;;;;8.88;5.28;;;;;;;13.65;92.98;101112.59;5095547;28;20385;-61
2023/08/28 04:26:56;;;;;;;8.32;5.55;;;;;;;13.74;92.92;101117.94;5095586;28;20032;-61
2023/08/28 04:29:21;;;;;;;10.85;5.55;;;;;;;13.71;93.11;101110.88;5095305;28;20028;-62
2023/08/28 04:31:47;;;;;;;9.23;5.55;;;;;;;13.75;93.06;101114.41;5095435;28;20024;-62
2023/08/28 04:34:13;;;;;;;8.55;5.95;;;;;;;13.76;93.33;101110.88;5095410;28;20032;-61
2023/08/28 04:36:38;;;;;;;8.02;6.00;;;;;;;13.77;93.38;101112.63;5095311;28;20028;-62
2023/08/28 04:39:04;;;;;;;8.80;6.10;;;;;;;13.71;93.58;101113.53;5095331;28;20028;-62
2023/08/28 04:41:29;;;;;;;9.93;6.28;;;;;;;13.67;93.36;101106.44;5095377;28;20377;-62
2023/08/28 04:43:55;;;;;;;10.90;6.47;;;;;;;13.76;93.54;101114.41;5076617;28;20050;-62
2023/08/28 04:46:22;;;;;;;8.95;6.10;;;;;;;13.84;93.82;101117.09;5094606;28;20040;-62
2023/08/28 04:48:47;;;;;;;9.85;6.43;;;;;;;13.88;93.60;101112.69;5094722;28;20469;-62
2023/08/28 04:51:13;;;;;;;11.13;6.30;;;;;;;13.92;93.72;101115.34;5094847;28;20072;-61
2023/08/28 04:53:38;;;;;;;9.52;6.63;;;;;;;13.93;93.42;101111.78;5094652;28;20035;-61
2023/08/28 04:56:04;;;;;;;9.05;6.80;;;;;;;13.98;93.29;101104.69;5076402;28;20028;-61
2023/08/28 04:58:30;;;;;;;12.48;6.85;;;;;;;14.04;93.04;101099.38;5094824;28;20028;-62
2023/08/28 05:00:55;;;;;;;10.27;6.60;;;;;;;14.07;93.32;101098.50;5094548;28;20032;-61
2023/08/28 05:03:22;;;;;;;8.98;7.00;;;;;;;14.07;93.03;101100.28;5094476;28;20036;-61
2023/08/28 05:05:47;;;;;;;9.90;6.80;;;;;;;14.10;93.05;101102.94;5094368;28;20043;-61
2023/08/28 05:08:12;;;;;;;10.75;6.50;;;;;;;14.15;92.68;101098.50;5076265;28;20110;-62
2023/08/28 05:10:38;;;;;;;11.05;6.47;;;;;;;14.20;92.63;101094.06;5094529;28;20048;-60
2023/08/28 05:13:03;;;;;;;10.77;7.13;;;;;;;14.24;92.56;101099.38;5094473;28;20462;-61
2023/08/28 05:15:29;;;;;;;8.68;6.57;;;;;;;14.24;92.29;101086.09;5094346;28;20127;-62
2023/08/28 05:17:54;;;;;;;11.15;6.43;;;;;;;14.26;92.56;101097.63;5093655;28;20032;-62
2023/08/28 05:20:19;;;;;;;12.38;7.00;;;;;;;14.28;92.92;101092.31;5094037;28;20058;-60
2023/08/28 05:22:45;;;;;;;12.40;7.05;;;;;;;14.30;93.45;101098.50;5093886;28;20063;-62
2023/08/28 05:25:10;;;;;;;10.10;6.72;;;;;;;14.37;93.59;101094.97;5094108;28;20032;-61
2023/08/28 05:27:35;;;;;;;12.20;7.10;;;;;;;14.43;93.75;101092.31;5093843;28;20113;-61
2023/08/28 05:30:01;;;;;;;12.38;7.30;;;;;;;14.47;93.75;101090.50;5094097;28;20048;-62
2023/08/28 05:32:26;;;;;;;11.73;7.70;;;;;;;14.50;94.31;101093.19;5093900;28;20024;-61
2023/08/28 05:34:53;;;;;;;10.60;7.10;;;;;;;14.62;94.38;101085.22;5094042;28;20028;-61
2023/08/28 05:37:19;;;;;;;11.38;7.88;;;;;;;14.71;94.69;101085.19;5076079;28;20046;-61
2023/08/28 05:39:44;;;;;;;9.23;7.03;;;;;;;14.92;94.77;101091.34;5093791;28;20027;-61
2023/08/28 05:42:09;;;;;;;15.95;7.13;;;;;;;15.07;94.21;101085.94;5093922;28;20028;-62
2023/08/28 05:44:35;;;;;;;10.43;7.50;;;;;;;15.17;93.70;101084.16;5075399;28;20110;-62
2023/08/28 05:47:00;;;;;;;11.68;7.68;;;;;;;15.21;94.03;101086.78;5093763;28;20032;-61
2023/08/28 05:49:26;;;;;;;8.60;7.00;;;;;;;15.31;93.85;101082.31;5093778;28;20470;-61
2023/08/28 05:51:52;;;;;;;12.02;7.75;;;;;;;15.47;94.05;101080.47;5075944;28;20035;-61
2023/08/28 05:54:18;;;;;;;13.63;8.15;;;;;;;15.53;93.94;101086.63;5093412;28;20470;-60
2023/08/28 05:56:43;;;;;;;14.90;7.70;;;;;;;15.69;93.47;101098.09;5093432;28;20023;-61
2023/08/28 05:59:08;;;;;;;10.13;7.43;;;;;;;15.75;92.87;101098.06;5093247;28;20078;-61
2023/08/28 06:01:34;;;;;;;10.15;7.28;;;;;;;15.92;92.52;101095.28;5075432;28;20024;-61
2023/08/28 06:03:59;;;;;;;10.77;7.35;;;;;;;16.05;92.32;101085.41;5093397;28;20085;-62
2023/08/28 06:06:25;;;;;;;12.57;7.60;;;;;;;16.16;92.16;101085.34;5093507;28;20024;-62
2023/08/28 06:08:50;;;;;;;15.90;8.25;;;;;;;16.31;91.64;101085.19;5093305;28;20537;-61
2023/08/28 06:11:15;;;;;;;10.27;8.00;;;;;;;16.43;91.26;101087.75;5093142;28;20067;-61
2023/08/28 06:13:41;;;;;;;11.85;7.50;;;;;;;16.55;91.04;101096.53;5075249;28;20032;-61
2023/08/28 06:16:06;;;;;;;9.35;7.30;;;;;;;16.46;89.87;101085.06;5092915;28;20500;-62
2023/08/28 06:18:32;;;;;;;11.15;7.80;;;;;;;16.59;90.61;101083.16;5058497;28;20164;-62
2023/08/28 06:20:58;;;;;;;9.43;7.80;;;;;;;16.71;90.49;101085.69;5093001;28;20470;-60
2023/08/28 06:23:23;;;;;;;11.07;7.95;;;;;;;16.88;90.76;101082.88;5092966;28;20131;-62
2023/08/28 06:25:49;;;;;;;9.77;7.53;;;;;;;16.91;89.81;101082.81;5092949;28;20549;-62
2023/08/28 06:28:14;;;;;;;9.48;7.70;;;;;;;17.00;90.05;101089.84;5093095;28;20028;-62
2023/08/28 06:30:40;;;;;;;9.43;7.47;;;;;;;17.08;89.44;101097.75;5092348;28;20028;-61
2023/08/28 06:33:05;;;;;;;10.57;7.38;;;;;;;17.16;88.94;101095.88;5092945;28;20538;-61
2023/08/28 06:35:32;;;;;;;12.75;7.55;;;;;;;17.21;89.20;101091.38;5093235;28;20020;-61
2023/08/28 06:37:58;;;;;;;8.48;7.20;;;;;;;17.32;88.91;101100.13;5092699;28;20024;-61
2023/08/28 06:40:23;;;;;;;7.70;6.85;;;;;;;17.40;88.45;101100.91;5092922;28;20039;-62
2023/08/28 06:42:48;;;;;;;9.95;7.28;;;;;;;17.50;87.46;101094.53;5092697;28;20034;-60
2023/08/28 06:45:14;;;;;;;10.98;7.72;;;;;;;17.57;87.35;101100.69;5092851;28;20032;-62
2023/08/28 06:47:39;;;;;;;10.65;7.20;;;;;;;17.60;86.76;101105.09;5092770;28;20067;-61
2023/08/28 06:50:05;;;;;;;11.95;7.32;;;;;;;17.75;87.52;101105.78;5092986;28;20131;-62
2023/08/28 06:52:31;;;;;;;9.93;6.93;;;;;;;17.84;86.94;101112.81;5092994;28;20111;-60
2023/08/28 06:54:56;;;;;;;9.63;7.18;;;;;;;17.99;87.26;101117.06;5092761;28;20034;-61
2023/08/28 06:57:22;;;;;;;8.73;7.15;;;;;;;18.15;86.43;101125.69;5092539;28;20028;-61
2023/08/28 06:59:48;;;;;;;13.63;7.10;;;;;;;18.31;86.59;101121.88;5092523;28;20020;-62
2023/08/28 07:02:14;;;;;;;10.25;6.70;;;;;;;18.48;85.04;101126.94;5092619;28;20036;-62
2023/08/28 07:04:39;;;;;;;10.95;7.15;;;;;;;18.66;84.31;101126.59;5092425;28;20066;-61
2023/08/28 07:07:05;;;;;;;10.13;7.00;;;;;;;18.84;83.12;101124.53;5092800;28;20028;-61
2023/08/28 07:09:30;;;;;;;9.95;6.70;;;;;;;18.94;82.82;101128.81;5092367;28;20523;-62
2023/08/28 07:11:56;;;;;;;10.35;7.20;;;;;;;18.83;82.34;101131.66;5092593;28;20028;-62
2023/08/28 07:14:21;;;;;;;9.00;7.20;;;;;;;18.79;82.54;101131.75;5092346;28;20020;-61
2023/08/28 07:16:47;;;;;;;9.85;7.35;;;;;;;18.68;83.19;101131.94;5092514;28;20410;-62
2023/08/28 07:19:12;;;;;;;9.13;7.20;;;;;;;18.65;83.79;101129.31;5092411;28;20020;-62
2023/08/28 07:21:38;;;;;;;9.60;6.78;;;;;;;18.69;84.69;101129.25;5092465;28;20024;-62
2023/08/28 07:24:03;;;;;;;10.45;8.00;;;;;;;18.82;84.04;101127.25;5073858;28;20097;-60
2023/08/28 07:26:29;;;;;;;13.35;8.32;;;;;;;19.18;83.68;101117.59;5092544;28;20071;-61
2023/08/28 07:28:54;;;;;;;8.75;7.60;;;;;;;19.49;81.54;101125.00;5092291;28;20099;-60
2023/08/28 07:31:19;;;;;;;10.75;6.70;;;;;;;19.48;80.57;101123.22;5092455;28;20028;-61
2023/08/28 07:33:45;;;;;;;9.93;7.50;;;;;;;19.50;80.92;101119.59;5092417;28;20028;-61
2023/08/28 07:36:10;;;;;;;9.10;7.63;;;;;;;19.71;80.80;101106.69;5092141;28;20031;-60
2023/08/28 07:38:36;;;;;;;12.27;7.80;;;;;;;19.90;80.25;101117.84;5092351;28;20537;-61
2023/08/28 07:41:01;;;;;;;9.57;6.93;;;;;;;20.11;79.26;101106.59;5092142;28;20028;-60
2023/08/28 07:43:27;;;;;;;14.05;7.05;;;;;;;20.45;78.63;101114.69;5096125;28;20040;-62
2023/08/28 07:45:52;;;;;;;8.77;7.13;;;;;;;20.56;77.73;101109.09;5095654;28;20028;-61
2023/08/28 07:48:18;;;;;;;9.75;6.78;;;;;;;20.84;76.47;101116.38;5095927;28;20021;-61
2023/08/28 07:50:45;;;;;;;8.18;6.40;;;;;;;21.00;75.09;101113.25;5095842;28;20066;-61
2023/08/28 07:53:11;;;;;;;11.48;6.15;;;;;;;21.26;74.95;101120.56;5096069;28;20092;-61
2023/08/28 07:55:37;;;;;;;9.18;6.40;;;;;;;21.46;73.97;101113.75;5096157;28;20028;-60
2023/08/28 07:58:04;;;;;;;9.02;5.60;;;;;;;21.72;72.67;101112.97;5095725;28;20034;-61
2023/08/28 08:00:34;;;;;;;8.98;6.15;;;;;;;21.87;72.36;101123.22;5095724;28;20084;-62
2023/08/28 08:03:00;;;;;;;13.00;6.53;;;;;;;21.93;71.55;101124.84;5095914;28;20131;-61
2023/08/28 08:05:26;;;;;;;9.10;5.80;;;;;;;21.79;71.28;101114.50;5095661;28;20016;-59
2023/08/28 08:07:51;;;;;;;8.65;5.20;;;;;;;21.83;70.42;101112.59;5095623;28;20161;-61
2023/08/28 08:10:17;;;;;;;8.13;4.88;;;;;;;21.85;70.16;101113.44;5095574;28;20024;-61
2023/08/28 08:12:44;;;;;;;7.13;4.93;;;;;;;21.89;70.67;101120.50;5095261;28;20032;-61
2023/08/28 08:15:10;;;;;;;9.77;5.03;;;;;;;21.68;68.99;101116.66;5095638;28;20115;-60
2023/08/28 08:17:38;;;;;;;7.38;5.63;;;;;;;21.67;71.08;101125.63;5095021;28;20100;-62
2023/08/28 08:20:10;;;;;;;9.02;6.03;;;;;;;21.64;71.58;101113.19;5095650;28;20024;-60
2023/08/28 08:22:37;;;;;;;7.07;5.82;;;;;;;21.58;71.72;101112.47;5095169;28;20029;-61
2023/08/28 08:25:04;;;;;;;8.80;6.35;;;;;;;21.38;72.29;101119.34;5095344;28;20059;-61
2023/08/28 08:27:29;;;;;;;9.05;6.30;;;;;;;21.23;73.28;101114.38;5095465;28;20119;-60
2023/08/28 08:29:54;;;;;;;9.07;6.25;;;;;;;21.11;74.25;101122.78;5094992;28;20584;-61
2023/08/28 08:32:20;;;;;;;8.13;4.95;;;;;;;21.19;73.15;101112.69;5095240;28;20027;-61
2023/08/28 08:34:45;;;;;;;8.23;5.15;;;;;;;21.30;72.20;101120.47;5095369;28;20051;-60
2023/08/28 08:37:10;;;;;;;9.68;5.60;;;;;;;21.28;72.17;101123.19;5095063;28;20519;-61
2023/08/28 08:39:36;;;;;;;9.65;5.45;;;;;;;21.22;71.91;101126.94;5095001;28;20059;-60
2023/08/28 08:42:01;;;;;;;6.43;4.85;;;;;;;21.14;71.58;101128.97;5095028;28;20110;-61
2023/08/28 08:44:27;;;;;;;6.03;4.60;;;;;;;21.01;71.07;101123.06;5094717;28;20397;-60
2023/08/28 08:46:54;;;;;;;7.18;4.68;;;;;;;20.79;71.98;101134.44;5094730;28;20397;-62
2023/08/28 08:49:25;;;;;;;7.05;4.50;;;;;;;20.71;71.32;101138.19;5094729;28;20035;-61
2023/08/28 08:51:52;;;;;;;8.52;4.75;;;;;;;20.77;72.70;101131.81;5094819;28;20024;-60
2023/08/28 08:54:23;;;;;;;9.00;5.45;;;;;;;20.72;73.38;101128.34;5093981;28;20027;-60
2023/08/28 08:56:52;;;;;;;5.82;5.22;;;;;;;20.75;72.68;101136.31;5094442;28;20024;-60
2023/08/28 08:59:18;;;;;;;8.73;5.15;;;;;;;20.84;72.99;101137.88;5094830;28;20024;-61
2023/08/28 09:01:44;;;;;;;8.70;5.50;;;;;;;20.93;72.99;101130.44;5094572;28;20049;-61
2023/08/28 09:04:09;;;;;;;7.63;5.10;;;;;;;21.05;73.57;101121.16;5094877;28;20058;-63
2023/08/28 09:06:37;;;;;;;7.50;6.03;;;;;;;21.38;72.82;101122.03;5094331;28;20024;-61
2023/08/28 09:09:05;;;;;;;7.70;6.05;;;;;;;21.64;71.99;101123.06;5094529;28;20035;-60
2023/08/28 09:11:31;;;;;;;7.95;6.38;;;;;;;21.68;71.25;101124.75;5094667;28;20032;-60
2023/08/28 09:13:57;;;;;;;7.20;5.20;;;;;;;21.73;69.14;101128.16;5094511;28;20028;-60
2023/08/28 09:16:23;;;;;;;8.05;6.00;;;;;;;21.70;68.62;101122.88;5094038;28;20347;-60
2023/08/28 09:18:49;;;;;;;6.90;5.35;;;;;;;21.68;68.12;101122.03;5094212;28;20028;-60
2023/08/28 09:21:15;;;;;;;8.60;5.68;;;;;;;21.65;68.68;101120.31;5094391;28;20032;-60
2023/08/28 09:23:43;;;;;;;7.85;5.80;;;;;;;21.58;69.58;101115.16;5094041;28;20048;-60
2023/08/28 09:26:12;;;;;;;9.15;6.35;;;;;;;21.50;70.21;101112.72;5094288;28;20362;-60
2023/08/28 09:28:37;;;;;;;7.32;5.90;;;;;;;21.53;70.53;101109.06;5093812;28;20047;-61
2023/08/28 09:31:03;;;;;;;5.95;4.97;;;;;;;21.46;68.72;101111.94;5094009;28;20052;-60
2023/08/28 09:33:44;;;;;;;6.38;5.28;;;;;;;21.41;70.14;101124.66;5093862;28;20493;-60
2023/08/28 09:36:15;;;;;;;7.50;5.10;;;;;;;21.18;69.77;101114.50;5075848;28;20062;-60
2023/08/28 09:38:41;;;;;;;9.05;4.65;;;;;;;21.14;68.23;101117.34;5094048;28;20106;-60
2023/08/28 09:41:07;;;;;;;4.75;4.10;;;;;;;21.06;69.32;101128.28;5093850;28;20028;-61
2023/08/28 09:43:35;;;;;;;5.25;4.07;;;;;;;21.15;69.20;101129.84;5093586;28;20535;-61
2023/08/28 09:46:01;;;;;;;6.43;4.20;;;;;;;21.00;69.15;101121.28;5093540;28;20028;-59
2023/08/28 09:48:30;;;;;;;9.20;4.75;;;;;;;21.09;69.74;101125.53;5093686;28;20389;-59
2023/08/28 09:50:56;;;;;;;7.90;5.20;;;;;;;21.00;70.94;101126.66;5093595;28;20120;-61
2023/08/28 09:53:27;;;;;;;7.65;4.93;;;;;;;21.03;71.20;101136.47;5075168;28;20111;-60
2023/08/28 09:55:53;;;;;;;5.68;3.85;;;;;;;21.07;71.33;101131.84;5093475;28;20036;-60
2023/08/28 09:58:21;;;;;;;6.65;3.80;;;;;;;20.98;71.47;101139.28;5093603;28;20035;-61
2023/08/28 10:00:46;;;;;;;5.93;3.47;;;;;;;21.06;71.08;101133.66;5093432;28;20024;-59
2023/08/28 10:03:13;;;;;;;5.88;3.60;;;;;;;21.11;70.80;101129.06;5093737;28;20039;-61
2023/08/28 10:05:46;;;;;;;4.95;3.80;;;;;;;21.22;70.37;101135.00;5093396;28;20480;-60
2023/08/28 10:08:13;;;;;;;8.40;4.80;;;;;;;21.09;68.78;101130.03;5093468;28;20020;-60
2023/08/28 10:10:41;;;;;;;7.35;4.28;;;;;;;21.11;69.88;101130.84;5093224;28;20441;-59
2023/08/28 10:13:13;;;;;;;7.55;4.30;;;;;;;21.15;70.55;101129.84;5093456;28;20068;-60
2023/08/28 10:15:52;;;;;;;7.35;4.35;;;;;;;21.34;68.90;101131.13;5093183;28;20023;-60
2023/08/28 10:18:47;;;;;;;6.15;4.40;;;;;;;21.53;69.22;101117.13;5093158;28;20469;-61
2023/08/28 10:21:13;;;;;;;7.35;4.25;;;;;;;21.73;68.64;101128.16;5083912;28;20036;-59
2023/08/28 10:23:41;;;;;;;5.40;3.80;;;;;;;21.90;68.10;101124.94;5093223;28;20044;-61
2023/08/28 10:26:09;;;;;;;7.55;4.07;;;;;;;22.00;65.21;101126.41;5092995;28;20485;-60
2023/08/28 10:28:35;;;;;;;7.70;3.90;;;;;;;22.22;66.41;101129.31;5092974;28;20032;-61
2023/08/28 10:31:04;;;;;;;8.02;3.70;;;;;;;22.27;64.36;101135.44;5092805;28;20055;-60
2023/08/28 10:33:32;;;;;;;6.88;4.05;;;;;;;22.39;63.91;101129.63;5092893;28;20028;-60
2023/08/28 10:36:00;;;;;;;15.63;7.88;;;;;;;22.57;64.84;101135.31;5092951;28;20069;-59
2023/08/28 10:38:27;;;;;;;8.70;4.80;;;;;;;22.64;63.19;101135.06;5092772;28;20032;-60
2023/08/28 10:40:55;;;;;;;5.05;3.88;;;;;;;22.86;61.45;101131.59;5092865;28;20032;-60
2023/08/28 10:43:23;;;;;;;4.85;3.80;;;;;;;22.72;61.28;101127.59;5092600;28;20023;-60
2023/08/28 10:45:51;;;;;;;4.32;3.35;;;;;;;22.90;62.05;101127.91;5092822;28;20089;-59
2023/08/28 10:48:16;;;;;;;6.95;3.47;;;;;;;23.08;60.17;101132.59;5092693;28;20043;-60
2023/08/28 10:50:42;;;;;;;5.50;3.40;;;;;;;23.31;58.35;101121.00;5092998;28;20454;-60
2023/08/28 10:53:13;;;;;;;3.42;2.80;;;;;;;23.44;55.92;101122.28;5095012;28;20039;-61
2023/08/28 10:55:39;;;;;;;3.75;1.85;;;;;;;23.47;52.33;101126.69;5102260;28;20023;-61
2023/08/28 10:58:05;;;;;;;4.13;2.63;;;;;;;23.50;55.18;101115.75;5100304;28;20111;-60
2023/08/28 11:00:34;;;;;;;3.45;2.45;;;;;;;23.76;57.96;101117.47;5100790;28;20112;-61
2023/08/28 11:03:15;;;;;;;3.00;2.30;;;;;;;23.79;57.60;101114.66;5074510;28;20067;-61
2023/08/28 11:05:42;;;;;;;5.35;2.58;;;;;;;23.79;54.89;101121.88;5092940;28;20027;-60
2023/08/28 11:08:09;;;;;;;4.78;2.40;;;;;;;23.79;54.45;101108.38;5092742;28;20025;-61
2023/08/28 11:10:39;;;;;;;2.90;2.40;;;;;;;24.13;52.69;101118.69;5102141;28;20377;-60
2023/08/28 11:13:11;;;;;;;3.50;2.55;;;;;;;24.18;52.99;101106.75;5100989;28;20097;-61
2023/08/28 11:15:39;;;;;;;;;;;;;;;24.60;56.12;101110.44;5102556;28;20036;-60
2023/08/28 11:18:30;;;;;;;4.13;3.10;;;;;;;24.86;53.95;101104.75;5106639;28;19972;-60
2023/08/28 11:21:06;;;;;;;5.22;3.30;;;;;;;25.13;52.92;101099.97;5106367;28;20099;-60
2023/08/28 11:23:38;;;;;;;4.47;3.40;;;;;;;25.63;51.40;101101.25;5101572;28;20124;-60